createdAt,value
2018-06-23T00:02:21.215Z,3.03
2018-06-23T00:04:50.747Z,2.80
2018-06-23T00:07:19.246Z,3.00
2018-06-23T00:09:47.771Z,2.90
2018-06-23T00:12:16.294Z,2.80
2018-06-23T00:14:45.802Z,3.17
2018-06-23T00:17:14.486Z,2.30
2018-06-23T00:19:43.105Z,3.50
2018-06-23T00:22:11.579Z,4.07
2018-06-23T00:24:40.954Z,3.20
2018-06-23T00:27:09.427Z,2.90
2018-06-23T00:29:38.471Z,4.30
2018-06-23T00:32:06.972Z,4.83
2018-06-23T00:34:35.501Z,3.50
2018-06-23T00:37:04.179Z,3.60
2018-06-23T00:39:32.687Z,3.37
2018-06-23T00:42:01.170Z,3.83
2018-06-23T00:44:29.697Z,2.90
2018-06-23T00:46:58.318Z,3.30
2018-06-23T00:49:26.596Z,2.60
2018-06-23T00:51:55.086Z,3.20
2018-06-23T00:54:23.626Z,3.00
2018-06-23T00:56:52.095Z,2.70
2018-06-23T00:59:31.864Z,3.27
2018-06-23T01:02:00.328Z,3.57
2018-06-23T01:04:29.056Z,3.33
2018-06-23T01:06:57.513Z,3.10
2018-06-23T01:09:25.699Z,2.33
2018-06-23T01:11:54.244Z,3.30
2018-06-23T01:14:22.685Z,2.57
2018-06-23T01:16:51.209Z,2.33
2018-06-23T01:19:19.676Z,3.83
2018-06-23T01:21:48.255Z,3.60
2018-06-23T01:24:16.743Z,3.20
2018-06-23T01:26:45.235Z,2.57
2018-06-23T01:29:13.666Z,2.90
2018-06-23T01:31:42.145Z,2.70
2018-06-23T01:34:10.653Z,3.37
2018-06-23T01:36:39.281Z,3.13
2018-06-23T01:39:10.173Z,2.50
2018-06-23T01:41:38.678Z,2.60
2018-06-23T01:44:07.224Z,2.80
2018-06-23T01:46:35.770Z,2.07
2018-06-23T01:49:04.835Z,2.77
2018-06-23T01:51:33.323Z,1.90
2018-06-23T01:54:01.949Z,2.83
2018-06-23T01:56:30.461Z,2.87
2018-06-23T01:58:58.931Z,2.57
2018-06-23T02:01:27.461Z,2.63
2018-06-23T02:03:55.918Z,2.77
2018-06-23T02:06:24.410Z,2.47
2018-06-23T02:08:52.921Z,2.67
2018-06-23T02:11:21.450Z,2.67
2018-06-23T02:13:56.358Z,2.57
2018-06-23T02:16:30.139Z,2.20
2018-06-23T02:19:03.724Z,2.70
2018-06-23T02:21:37.674Z,2.90
2018-06-23T02:24:11.534Z,2.93
2018-06-23T02:26:45.175Z,2.60
2018-06-23T02:29:18.602Z,3.10
2018-06-23T02:31:52.506Z,2.30
2018-06-23T02:34:26.407Z,2.40
2018-06-23T02:36:56.056Z,3.27
2018-06-23T02:39:24.584Z,1.80
2018-06-23T02:41:53.080Z,2.50
2018-06-23T02:44:21.598Z,3.10
2018-06-23T02:46:50.174Z,2.60
2018-06-23T02:49:18.683Z,2.80
2018-06-23T02:51:47.146Z,2.80
2018-06-23T02:54:15.650Z,2.57
2018-06-23T02:56:43.789Z,2.70
2018-06-23T02:59:12.344Z,2.73
2018-06-23T03:01:40.814Z,3.33
2018-06-23T03:04:09.329Z,2.57
2018-06-23T03:06:37.794Z,3.50
2018-06-23T03:09:07.002Z,2.60
2018-06-23T03:11:35.477Z,3.83
2018-06-23T03:14:03.994Z,2.93
2018-06-23T03:16:32.475Z,3.57
2018-06-23T03:19:00.954Z,2.80
2018-06-23T03:21:29.413Z,4.10
2018-06-23T03:23:57.912Z,2.90
2018-06-23T03:26:26.362Z,3.20
2018-06-23T03:28:54.874Z,2.87
2018-06-23T03:31:23.321Z,3.27
2018-06-23T03:33:51.860Z,2.70
2018-06-23T03:36:20.445Z,4.10
2018-06-23T03:38:48.729Z,3.47
2018-06-23T03:41:17.194Z,3.60
2018-06-23T03:43:45.669Z,3.30
2018-06-23T03:46:14.215Z,3.27
2018-06-23T03:48:42.882Z,3.50
2018-06-23T03:51:11.370Z,4.93
2018-06-23T03:53:39.867Z,3.27
2018-06-23T03:56:08.390Z,4.17
2018-06-23T03:58:36.833Z,3.23
2018-06-23T04:01:08.898Z,3.20
2018-06-23T04:03:38.143Z,3.50
2018-06-23T04:06:06.717Z,4.10
2018-06-23T04:08:35.611Z,3.57
2018-06-23T04:11:04.456Z,3.30
2018-06-23T04:13:33.408Z,2.87
2018-06-23T04:16:02.067Z,2.33
2018-06-23T04:18:30.542Z,3.23
2018-06-23T04:20:59.125Z,3.13
2018-06-23T04:23:27.650Z,3.37
2018-06-23T04:25:56.171Z,2.63
2018-06-23T04:28:24.698Z,2.83
2018-06-23T04:30:53.210Z,2.30
2018-06-23T04:33:21.699Z,3.07
2018-06-23T04:35:50.210Z,2.80
2018-06-23T04:38:18.710Z,2.50
2018-06-23T04:40:47.219Z,3.13
2018-06-23T04:43:15.694Z,3.13
2018-06-23T04:45:44.270Z,2.80
2018-06-23T04:48:12.719Z,2.10
2018-06-23T04:50:41.269Z,3.17
2018-06-23T04:53:09.740Z,2.80
2018-06-23T04:55:38.258Z,3.37
2018-06-23T04:58:06.751Z,3.63
2018-06-23T05:00:35.377Z,2.90
2018-06-23T05:03:03.743Z,3.10
2018-06-23T05:05:32.261Z,4.23
2018-06-23T05:08:00.749Z,2.43
2018-06-23T05:10:29.249Z,2.97
2018-06-23T05:13:00.634Z,3.07
2018-06-23T05:15:29.117Z,3.40
2018-06-23T05:17:57.690Z,3.00
2018-06-23T05:20:26.169Z,2.70
2018-06-23T05:22:54.637Z,3.33
2018-06-23T05:25:23.190Z,4.20
2018-06-23T05:27:51.718Z,2.70
2018-06-23T05:30:20.271Z,3.33
2018-06-23T05:32:50.062Z,3.77
2018-06-23T05:35:20.431Z,3.43
2018-06-23T05:37:48.981Z,2.73
2018-06-23T05:40:17.458Z,3.53
2018-06-23T05:42:45.980Z,3.53
2018-06-23T05:45:14.813Z,4.27
2018-06-23T05:47:43.282Z,3.67
2018-06-23T05:50:11.834Z,4.23
2018-06-23T05:52:40.459Z,3.00
2018-06-23T05:55:08.972Z,4.77
2018-06-23T05:57:37.528Z,2.93
2018-06-23T06:00:06.078Z,3.90
2018-06-23T06:02:35.512Z,4.73
2018-06-23T06:05:04.090Z,2.97
2018-06-23T06:07:34.183Z,4.23
2018-06-23T06:10:03.499Z,4.63
2018-06-23T06:12:35.685Z,3.10
2018-06-23T06:15:04.258Z,3.57
2018-06-23T06:17:34.899Z,5.50
2018-06-23T06:20:05.550Z,4.87
2018-06-23T06:22:35.350Z,4.53
2018-06-23T06:25:04.348Z,3.83
2018-06-23T06:27:32.874Z,2.33
2018-06-23T06:30:01.398Z,3.77
2018-06-23T06:32:30.496Z,3.93
2018-06-23T06:34:59.138Z,4.07
2018-06-23T06:37:29.403Z,4.10
2018-06-23T06:39:57.916Z,3.33
2018-06-23T06:42:26.423Z,2.27
2018-06-23T06:44:54.959Z,3.33
2018-06-23T06:47:23.556Z,2.47
2018-06-23T06:49:52.135Z,2.80
2018-06-23T06:52:20.599Z,2.47
2018-06-23T06:54:49.143Z,2.80
2018-06-23T06:57:17.653Z,3.63
2018-06-23T06:59:46.158Z,2.20
2018-06-23T07:02:14.638Z,3.27
2018-06-23T07:04:43.838Z,3.20
2018-06-23T07:07:12.315Z,3.63
2018-06-23T07:09:40.885Z,4.63
2018-06-23T07:12:09.397Z,2.63
2018-06-23T07:14:37.909Z,2.50
2018-06-23T07:17:06.442Z,4.10
2018-06-23T07:19:34.941Z,3.63
2018-06-23T07:22:03.669Z,2.20
2018-06-23T07:24:32.190Z,3.50
2018-06-23T07:27:00.767Z,2.83
2018-06-23T07:29:29.243Z,2.90
2018-06-23T07:31:57.778Z,2.90
2018-06-23T07:34:26.360Z,2.00
2018-06-23T07:36:54.867Z,2.60
2018-06-23T07:39:23.048Z,2.73
2018-06-23T07:41:51.598Z,2.67
2018-06-23T07:44:20.057Z,3.70
2018-06-23T07:46:48.641Z,2.53
2018-06-23T07:49:17.106Z,3.50
2018-06-23T07:51:45.722Z,3.87
2018-06-23T07:54:14.898Z,3.80
2018-06-23T07:56:43.426Z,3.83
2018-06-23T07:59:11.975Z,2.60
2018-06-23T08:01:40.547Z,3.70
2018-06-23T08:04:09.035Z,2.83
2018-06-23T08:06:38.607Z,3.57
2018-06-23T08:09:08.805Z,3.43
2018-06-23T08:11:37.544Z,2.87
2018-06-23T08:14:06.062Z,3.00
2018-06-23T08:16:37.682Z,2.80
2018-06-23T08:19:06.396Z,3.30
2018-06-23T08:21:36.137Z,3.50
2018-06-23T08:24:04.698Z,3.80
2018-06-23T08:26:33.315Z,3.30
2018-06-23T08:29:01.817Z,3.80
2018-06-23T08:31:32.176Z,3.10
2018-06-23T08:34:02.059Z,3.77
2018-06-23T08:36:32.601Z,3.80
2018-06-23T08:39:01.161Z,3.60
2018-06-23T08:41:29.670Z,3.07
2018-06-23T08:43:58.195Z,3.40
2018-06-23T08:46:26.784Z,3.20
2018-06-23T08:48:55.402Z,3.37
2018-06-23T08:51:24.047Z,3.40
2018-06-23T08:53:52.665Z,3.80
2018-06-23T08:56:21.224Z,3.57
2018-06-23T08:58:49.767Z,3.80
2018-06-23T09:01:18.284Z,3.87
2018-06-23T09:03:46.885Z,4.67
2018-06-23T09:06:15.340Z,4.73
2018-06-23T09:08:43.914Z,5.30
2018-06-23T09:11:12.504Z,5.10
2018-06-23T09:13:44.816Z,4.37
2018-06-23T09:16:13.539Z,5.20
2018-06-23T09:18:42.100Z,4.00
2018-06-23T09:21:11.703Z,3.20
2018-06-23T09:23:40.309Z,4.50
2018-06-23T09:26:11.318Z,5.30
2018-06-23T09:28:42.203Z,5.80
2018-06-23T09:31:11.576Z,5.23
2018-06-23T09:33:42.489Z,5.53
2018-06-23T09:36:10.980Z,5.60
2018-06-23T09:38:40.237Z,5.10
2018-06-23T09:41:08.703Z,4.83
2018-06-23T09:43:37.210Z,5.50
2018-06-23T09:46:05.931Z,4.10
2018-06-23T09:48:34.506Z,4.03
2018-06-23T09:51:03.024Z,4.37
2018-06-23T09:53:31.558Z,4.33
2018-06-23T09:56:00.151Z,3.97
2018-06-23T09:58:28.654Z,4.57
2018-06-23T10:00:57.117Z,4.57
2018-06-23T10:03:25.751Z,5.10
2018-06-23T10:05:54.195Z,5.23
2018-06-23T10:08:22.765Z,4.77
2018-06-23T10:10:51.262Z,5.60
2018-06-23T10:13:19.818Z,5.47
2018-06-23T10:15:48.268Z,4.43
2018-06-23T10:18:16.776Z,5.50
2018-06-23T10:20:45.291Z,4.63
2018-06-23T10:23:13.816Z,4.33
2018-06-23T10:25:42.311Z,5.03
2018-06-23T10:28:10.800Z,4.13
2018-06-23T10:30:38.941Z,3.73
2018-06-23T10:33:07.466Z,4.27
2018-06-23T10:35:35.926Z,4.90
2018-06-23T10:38:04.493Z,4.30
2018-06-23T10:40:33.016Z,3.47
2018-06-23T10:43:01.531Z,3.60
2018-06-23T10:45:30.069Z,4.00
2018-06-23T10:47:59.320Z,3.57
2018-06-23T10:50:27.801Z,4.20
2018-06-23T10:52:56.346Z,4.30
2018-06-23T10:55:24.951Z,3.53
2018-06-23T10:57:53.566Z,4.10
2018-06-23T11:00:22.087Z,2.50
2018-06-23T11:02:50.844Z,4.63
2018-06-23T11:05:19.343Z,4.50
2018-06-23T11:07:48.220Z,4.97
2018-06-23T11:10:16.694Z,4.67
2018-06-23T11:12:45.229Z,4.70
2018-06-23T11:15:13.879Z,4.60
2018-06-23T11:17:42.530Z,4.20
2018-06-23T11:20:11.082Z,4.43
2018-06-23T11:22:39.699Z,4.57
2018-06-23T11:25:08.343Z,5.60
2018-06-23T11:27:36.900Z,5.40
2018-06-23T11:30:06.146Z,6.93
2018-06-23T11:32:34.702Z,7.10
2018-06-23T11:35:03.369Z,6.50
2018-06-23T11:37:31.974Z,6.70
2018-06-23T11:40:00.545Z,7.33
2018-06-23T11:42:29.091Z,6.00
2018-06-23T11:44:57.632Z,7.50
2018-06-23T11:47:26.103Z,7.70
2018-06-23T11:49:55.255Z,7.13
2018-06-23T11:52:24.656Z,6.93
2018-06-23T11:54:53.284Z,7.40
2018-06-23T11:57:22.035Z,7.83
2018-06-23T11:59:50.548Z,8.33
2018-06-23T12:02:19.656Z,7.60
2018-06-23T12:04:49.629Z,7.37
2018-06-23T12:07:18.210Z,7.90
2018-06-23T12:09:46.958Z,6.97
2018-06-23T12:12:15.581Z,7.00
2018-06-23T12:14:44.248Z,7.23
2018-06-23T12:17:12.898Z,6.40
2018-06-23T12:19:42.783Z,7.60
2018-06-23T12:22:11.488Z,6.60
2018-06-23T12:24:40.073Z,6.43
2018-06-23T12:27:08.975Z,6.40
2018-06-23T12:29:38.210Z,6.43
2018-06-23T12:32:06.790Z,5.90
2018-06-23T12:34:35.741Z,6.20
2018-06-23T12:37:04.380Z,6.10
2018-06-23T12:39:32.828Z,5.67
2018-06-23T12:42:01.429Z,5.67
2018-06-23T12:44:29.973Z,5.70
2018-06-23T12:46:58.518Z,5.23
2018-06-23T12:49:27.091Z,5.60
2018-06-23T12:51:55.600Z,4.97
2018-06-23T12:54:24.152Z,5.37
2018-06-23T12:56:52.675Z,4.70
2018-06-23T12:59:22.026Z,5.10
2018-06-23T13:01:50.489Z,4.67
2018-06-23T13:04:22.260Z,4.87
2018-06-23T13:06:52.469Z,5.23
2018-06-23T13:09:21.247Z,4.50
2018-06-23T13:11:51.560Z,4.17
2018-06-23T13:14:20.371Z,4.90
2018-06-23T13:16:48.887Z,7.20
2018-06-23T13:19:18.995Z,5.60
2018-06-23T13:21:47.634Z,5.20
2018-06-23T13:24:16.180Z,4.33
2018-06-23T13:26:44.762Z,5.00
2018-06-23T13:29:13.330Z,4.70
2018-06-23T13:31:41.789Z,3.50
2018-06-23T13:34:10.351Z,3.87
2018-06-23T13:36:39.655Z,3.03
2018-06-23T13:39:09.612Z,3.00
2018-06-23T13:41:38.287Z,2.83
2018-06-23T13:44:06.977Z,3.60
2018-06-23T13:46:35.464Z,3.03
2018-06-23T13:49:04.071Z,3.70
2018-06-23T13:51:32.604Z,2.63
2018-06-23T13:54:01.318Z,3.80
2018-06-23T13:56:29.818Z,3.27
2018-06-23T13:58:58.341Z,3.60
2018-06-23T14:01:26.926Z,3.73
2018-06-23T14:03:55.706Z,3.20
2018-06-23T14:06:26.682Z,3.60
2018-06-23T14:08:56.246Z,3.70
2018-06-23T14:11:28.736Z,3.83
2018-06-23T14:13:57.303Z,4.60
2018-06-23T14:16:25.818Z,4.30
2018-06-23T14:18:54.474Z,5.33
2018-06-23T14:21:23.019Z,4.63
2018-06-23T14:23:52.981Z,5.50
2018-06-23T14:26:21.508Z,5.20
2018-06-23T14:28:51.783Z,4.27
2018-06-23T14:31:22.321Z,4.80
2018-06-23T14:33:51.092Z,4.43
2018-06-23T14:36:19.648Z,4.80
2018-06-23T14:38:47.885Z,13.53
2018-06-23T14:41:16.447Z,8.70
2018-06-23T14:43:44.988Z,4.40
2018-06-23T14:46:13.548Z,5.00
2018-06-23T14:48:43.247Z,4.50
2018-06-23T14:51:11.918Z,4.23
2018-06-23T14:53:41.634Z,3.90
2018-06-23T14:56:10.164Z,4.37
2018-06-23T14:58:38.574Z,4.27
2018-06-23T15:01:07.018Z,3.87
2018-06-23T15:03:35.689Z,4.80
2018-06-23T15:06:06.462Z,4.87
2018-06-23T15:08:46.345Z,5.00
2018-06-23T15:11:25.831Z,5.53
2018-06-23T15:13:54.393Z,4.83
2018-06-23T15:16:22.866Z,4.93
2018-06-23T15:18:51.414Z,4.73
2018-06-23T15:21:19.973Z,4.17
2018-06-23T15:23:48.487Z,4.60
2018-06-23T15:26:17.052Z,6.00
2018-06-23T15:28:45.602Z,5.00
2018-06-23T15:31:14.117Z,5.23
2018-06-23T15:33:43.295Z,4.97
2018-06-23T15:36:11.974Z,4.50
2018-06-23T15:38:40.574Z,5.87
2018-06-23T15:41:09.075Z,5.30
2018-06-23T15:43:37.811Z,5.90
2018-06-23T15:46:06.595Z,4.60
2018-06-23T15:48:35.135Z,5.60
2018-06-23T15:51:04.655Z,4.93
2018-06-23T15:53:33.174Z,4.53
2018-06-23T15:56:01.704Z,4.27
2018-06-23T15:58:30.248Z,5.40
2018-06-23T16:00:58.713Z,4.50
2018-06-23T16:03:27.434Z,6.37
2018-06-23T16:05:56.803Z,5.30
2018-06-23T16:08:26.135Z,5.40
2018-06-23T16:10:54.676Z,5.20
2018-06-23T16:13:23.824Z,3.23
2018-06-23T16:15:52.522Z,4.63
2018-06-23T16:18:21.688Z,2.97
2018-06-23T16:20:50.437Z,5.37
2018-06-23T16:23:18.972Z,4.37
2018-06-23T16:25:47.511Z,4.27
2018-06-23T16:28:16.084Z,4.93
2018-06-23T16:30:44.569Z,4.87
2018-06-23T16:33:13.100Z,5.90
2018-06-23T16:35:41.672Z,6.20
2018-06-23T16:38:10.394Z,6.73
2018-06-23T16:40:38.990Z,5.17
2018-06-23T16:43:07.499Z,5.70
2018-06-23T16:45:36.015Z,6.43
2018-06-23T16:48:04.629Z,6.20
2018-06-23T16:50:33.198Z,6.07
2018-06-23T16:53:01.696Z,6.00
2018-06-23T16:55:30.486Z,6.90
2018-06-23T16:57:58.987Z,5.60
2018-06-23T17:00:27.581Z,5.60
2018-06-23T17:02:56.268Z,5.83
2018-06-23T17:05:24.871Z,6.90
2018-06-23T17:07:53.346Z,4.40
2018-06-23T17:10:22.067Z,5.20
2018-06-23T17:12:51.390Z,5.10
2018-06-23T17:15:20.547Z,6.03
2018-06-23T17:17:49.087Z,8.20
2018-06-23T17:20:17.608Z,5.87
2018-06-23T17:22:46.274Z,5.07
2018-06-23T17:25:15.724Z,7.00
2018-06-23T17:27:45.431Z,4.80
2018-06-23T17:30:13.939Z,5.20
2018-06-23T17:32:42.469Z,3.83
2018-06-23T17:35:10.998Z,8.30
2018-06-23T17:37:39.695Z,6.73
2018-06-23T17:40:08.213Z,5.40
2018-06-23T17:42:36.680Z,5.80
2018-06-23T17:45:05.364Z,5.00
2018-06-23T17:47:33.970Z,3.77
2018-06-23T17:50:02.488Z,4.50
2018-06-23T17:52:30.946Z,5.33
2018-06-23T17:54:59.469Z,4.63
2018-06-23T17:57:33.217Z,5.07
2018-06-23T18:00:01.751Z,6.07
2018-06-23T18:02:31.070Z,5.10
2018-06-23T18:05:01.785Z,4.57
2018-06-23T18:07:30.322Z,6.17
2018-06-23T18:09:58.825Z,5.13
2018-06-23T18:12:27.302Z,5.60
2018-06-23T18:14:55.861Z,5.10
2018-06-23T18:17:24.340Z,4.10
2018-06-23T18:19:52.889Z,5.43
2018-06-23T18:22:21.370Z,4.93
2018-06-23T18:24:49.920Z,5.17
2018-06-23T18:27:18.398Z,6.07
2018-06-23T18:29:46.916Z,5.00
2018-06-23T18:32:15.441Z,4.20
2018-06-23T18:34:43.984Z,4.90
2018-06-23T18:37:12.660Z,4.67
2018-06-23T18:39:41.190Z,5.43
2018-06-23T18:42:09.668Z,5.23
2018-06-23T18:44:38.358Z,5.50
2018-06-23T18:47:06.894Z,2.90
2018-06-23T18:49:35.512Z,4.17
2018-06-23T18:52:04.104Z,5.07
2018-06-23T18:54:32.639Z,4.00
2018-06-23T18:57:01.116Z,3.83
2018-06-23T18:59:29.649Z,3.50
2018-06-23T19:01:58.196Z,5.03
2018-06-23T19:04:27.065Z,4.10
2018-06-23T19:07:02.367Z,4.77
2018-06-23T19:09:31.155Z,4.43
2018-06-23T19:12:00.279Z,3.30
2018-06-23T19:14:28.779Z,5.47
2018-06-23T19:16:57.313Z,4.30
2018-06-23T19:19:25.795Z,5.00
2018-06-23T19:21:54.366Z,5.40
2018-06-23T19:24:22.882Z,6.33
2018-06-23T19:26:51.423Z,9.43
2018-06-23T19:29:20.537Z,5.60
2018-06-23T19:31:50.222Z,3.97
2018-06-23T19:34:18.750Z,4.10
2018-06-23T19:36:47.564Z,3.77
2018-06-23T19:39:16.283Z,4.07
2018-06-23T19:41:44.930Z,4.83
2018-06-23T19:44:13.541Z,4.43
2018-06-23T19:46:42.871Z,5.00
2018-06-23T19:49:11.402Z,4.07
2018-06-23T19:51:40.062Z,5.23
2018-06-23T19:54:08.663Z,4.97
2018-06-23T19:56:37.775Z,5.80
2018-06-23T19:59:06.587Z,5.40
2018-06-23T20:01:35.279Z,5.70
2018-06-23T20:04:03.929Z,5.70
2018-06-23T20:06:32.478Z,3.90
2018-06-23T20:09:00.980Z,6.13
2018-06-23T20:11:29.518Z,6.07
2018-06-23T20:13:58.038Z,6.27
2018-06-23T20:16:27.628Z,5.90
2018-06-23T20:18:56.713Z,5.90
2018-06-23T20:21:25.850Z,5.50
2018-06-23T20:23:54.325Z,5.93
2018-06-23T20:26:23.672Z,6.03
2018-06-23T20:28:52.184Z,6.60
2018-06-23T20:31:21.403Z,6.30
2018-06-23T20:33:50.670Z,29.50
2018-06-23T20:36:19.906Z,7.63
2018-06-23T20:38:48.477Z,7.00
2018-06-23T20:41:17.405Z,6.47
2018-06-23T20:43:46.339Z,6.00
2018-06-23T20:46:15.625Z,6.20
2018-06-23T20:48:45.145Z,6.10
2018-06-23T20:51:13.682Z,5.80
2018-06-23T20:53:43.891Z,6.60
2018-06-23T20:56:12.457Z,6.13
2018-06-23T20:58:41.237Z,7.33
2018-06-23T21:01:10.382Z,12.87
2018-06-23T21:03:40.251Z,6.33
2018-06-23T21:06:09.462Z,7.80
2018-06-23T21:08:38.176Z,8.17
2018-06-23T21:11:07.479Z,6.70
2018-06-23T21:13:36.123Z,6.47
2018-06-23T21:16:04.730Z,6.67
2018-06-23T21:18:33.296Z,7.00
2018-06-23T21:21:02.310Z,7.47
2018-06-23T21:23:30.927Z,6.90
2018-06-23T21:25:59.509Z,11.27
2018-06-23T21:28:28.079Z,7.40
2018-06-23T21:30:56.363Z,6.83
2018-06-23T21:33:25.947Z,6.60
2018-06-23T21:35:54.506Z,12.90
2018-06-23T21:38:23.111Z,8.33
2018-06-23T21:40:51.613Z,8.03
2018-06-23T21:43:20.534Z,7.57
2018-06-23T21:45:49.325Z,8.80
2018-06-23T21:48:17.961Z,6.53
2018-06-23T21:50:46.425Z,7.20
2018-06-23T21:53:15.641Z,7.87
2018-06-23T21:55:44.235Z,7.00
2018-06-23T21:58:12.737Z,8.30
2018-06-23T22:00:43.707Z,7.97
2018-06-23T22:03:13.604Z,7.97
2018-06-23T22:05:42.083Z,6.87
2018-06-23T22:08:10.891Z,7.90
2018-06-23T22:10:39.607Z,8.87
2018-06-23T22:13:08.253Z,8.70
2018-06-23T22:15:36.873Z,8.17
2018-06-23T22:18:05.426Z,8.30
2018-06-23T22:20:33.980Z,7.07
2018-06-23T22:23:02.573Z,9.13
2018-06-23T22:25:31.179Z,9.57
2018-06-23T22:28:00.508Z,11.37
2018-06-23T22:30:29.228Z,9.40
2018-06-23T22:32:58.098Z,8.50
2018-06-23T22:35:26.612Z,8.83
2018-06-23T22:37:55.260Z,8.87
2018-06-23T22:40:23.976Z,7.90
2018-06-23T22:42:52.482Z,8.67
2018-06-23T22:45:21.226Z,8.27
2018-06-23T22:47:49.770Z,8.20
2018-06-23T22:50:18.385Z,9.23
2018-06-23T22:52:46.586Z,7.90
2018-06-23T22:55:15.259Z,9.73
2018-06-23T22:57:43.759Z,10.57
2018-06-23T23:00:14.402Z,11.07
2018-06-23T23:02:43.454Z,9.60
2018-06-23T23:05:12.036Z,8.60
2018-06-23T23:07:41.868Z,10.80
2018-06-23T23:10:11.101Z,10.00
2018-06-23T23:12:39.687Z,9.70
2018-06-23T23:15:08.178Z,10.20
2018-06-23T23:17:36.730Z,11.40
2018-06-23T23:20:06.082Z,10.80
2018-06-23T23:22:34.565Z,9.53
2018-06-23T23:25:03.053Z,10.50
2018-06-23T23:27:31.243Z,10.37
2018-06-23T23:29:59.767Z,9.53
2018-06-23T23:32:28.285Z,9.37
2018-06-23T23:34:56.746Z,8.27
2018-06-23T23:37:25.269Z,9.43
2018-06-23T23:39:53.758Z,9.73
2018-06-23T23:42:21.984Z,9.20
2018-06-23T23:44:50.456Z,10.27
2018-06-23T23:47:19.801Z,9.50
2018-06-23T23:49:47.963Z,9.30
2018-06-23T23:52:16.729Z,8.90
2018-06-23T23:54:45.242Z,9.40
2018-06-23T23:57:13.766Z,9.97
2018-06-23T23:59:42.277Z,11.60
